SBPL/PNZ METAR and TAF weather

Enter ICAO airport designator
Station Type Date Time Source
SBPL METAR 2020/03/29 22:00 UTC NOAA

SBPL 292200Z 16008KT CAVOK 26/21 Q1014


Station Type Date Time Source
SBPL Decoded METAR 2020/03/29 22:00 UTC NOAA

Petrolina , Brazil (SBPL) 09-21S 040-33W
Mar 29, 2020 - 06:00 PM EDT / 2020.03.29 2200 UTC
Wind: from the SSE (160 degrees) at 9 MPH (8 KT):0
Visibility: greater than 7 mile(s):0
Temperature: 78 F (26 C)
Dew Point: 69 F (21 C)
Relative Humidity: 73%
Pressure (altimeter): 29.94 in. Hg (1014 hPa)
ob: SBPL 292200Z 16008KT CAVOK 26/21 Q1014
cycle: 22

Station Type Date Time Source
SBPL TAF 2020/03/29 18:57 UTC NOAA

TAF SBPL 291500Z 2918/3018 12008KT 9999 SCT025 TN24/3008Z TX34/3018Z
BECMG 2923/3001 CAVOK
BECMG 3011/3013 9999 SCT030
RMK PCZ

Example: see airport list